createdAt,value
2023-03-18T00:00:28.458Z,3.28
2023-03-18T00:02:58.342Z,4.80
2023-03-18T00:05:27.904Z,5.28
2023-03-18T00:07:57.669Z,2.53
2023-03-18T00:10:30.099Z,1.80
2023-03-18T00:12:59.961Z,2.88
2023-03-18T00:15:29.940Z,3.17
2023-03-18T00:18:00.927Z,3.53
2023-03-18T00:20:38.883Z,3.10
2023-03-18T00:23:09.449Z,3.10
2023-03-18T00:25:42.627Z,3.25
2023-03-18T00:28:12.798Z,3.03
2023-03-18T00:30:42.812Z,2.28
2023-03-18T00:33:12.679Z,2.85
2023-03-18T00:35:42.841Z,2.25
2023-03-18T00:38:20.789Z,2.35
2023-03-18T00:41:01.697Z,2.47
2023-03-18T00:43:35.986Z,2.47
2023-03-18T00:46:05.837Z,2.42
2023-03-18T00:48:35.320Z,2.55
2023-03-18T00:51:05.116Z,2.30
2023-03-18T00:53:34.717Z,2.65
2023-03-18T00:56:07.116Z,3.25
2023-03-18T00:58:37.338Z,2.95
2023-03-18T01:01:08.587Z,5.22
2023-03-18T01:03:39.569Z,5.72
2023-03-18T01:06:10.010Z,4.18
2023-03-18T01:08:39.753Z,3.72
2023-03-18T01:11:13.600Z,3.20
2023-03-18T01:13:44.087Z,3.92
2023-03-18T01:16:14.342Z,3.10
2023-03-18T01:18:44.390Z,3.40
2023-03-18T01:21:14.092Z,3.70
2023-03-18T01:23:51.411Z,2.92
2023-03-18T01:26:23.901Z,4.00
2023-03-18T01:28:54.607Z,3.33
2023-03-18T01:31:26.329Z,3.38
2023-03-18T01:33:59.999Z,3.35
2023-03-18T01:36:31.400Z,3.58
2023-03-18T01:39:10.380Z,2.92
2023-03-18T01:41:43.678Z,2.53
2023-03-18T01:44:17.695Z,3.08
2023-03-18T01:46:48.700Z,3.97
2023-03-18T01:49:20.742Z,5.90
2023-03-18T01:51:53.046Z,4.10
2023-03-18T01:54:22.811Z,4.05
2023-03-18T01:56:55.154Z,3.97
2023-03-18T01:59:26.966Z,3.60
2023-03-18T02:01:58.304Z,4.03
2023-03-18T02:04:31.338Z,3.15
2023-03-18T02:07:01.459Z,3.72
2023-03-18T02:09:31.230Z,3.85
2023-03-18T02:12:04.873Z,3.47
2023-03-18T02:14:34.689Z,3.80
2023-03-18T02:17:06.541Z,4.05
2023-03-18T02:19:54.437Z,3.37
2023-03-18T02:22:28.930Z,3.90
2023-03-18T02:25:07.072Z,2.80
2023-03-18T02:27:40.420Z,2.38
2023-03-18T02:30:13.108Z,2.60
2023-03-18T02:32:44.907Z,2.25
2023-03-18T02:35:14.748Z,2.10
2023-03-18T02:37:44.302Z,2.25
2023-03-18T02:40:19.533Z,2.45
2023-03-18T02:42:52.103Z,2.40
2023-03-18T02:45:31.733Z,3.47
2023-03-18T02:48:17.859Z,8.57
2023-03-18T02:50:50.160Z,3.95
2023-03-18T02:53:19.753Z,3.40
2023-03-18T02:55:49.434Z,33.88
2023-03-18T02:58:21.585Z,11.18
2023-03-18T03:00:55.234Z,14.20
2023-03-18T03:03:24.926Z,12.43
2023-03-18T03:05:54.705Z,8.60
2023-03-18T03:08:26.452Z,4.28
2023-03-18T03:10:56.302Z,4.05
2023-03-18T03:13:28.653Z,3.70
2023-03-18T03:15:58.367Z,3.67
2023-03-18T03:18:28.594Z,25.35
2023-03-18T03:20:58.276Z,27.17
2023-03-18T03:23:28.045Z,23.15
2023-03-18T03:25:57.992Z,13.65
2023-03-18T03:28:32.313Z,14.77
2023-03-18T03:31:02.272Z,13.67
2023-03-18T03:33:32.017Z,11.57
2023-03-18T03:36:01.827Z,13.50
2023-03-18T03:38:31.367Z,10.87
2023-03-18T03:41:00.832Z,11.63
2023-03-18T03:43:34.066Z,9.98
2023-03-18T03:46:03.724Z,8.55
2023-03-18T03:48:33.299Z,8.45
2023-03-18T03:51:03.073Z,6.75
2023-03-18T03:53:32.604Z,7.03
2023-03-18T03:56:02.722Z,4.68
2023-03-18T03:58:34.869Z,3.85
2023-03-18T04:01:05.224Z,3.40
2023-03-18T04:03:34.936Z,3.58
2023-03-18T04:06:08.242Z,3.13
2023-03-18T04:08:42.088Z,3.00
2023-03-18T04:11:12.995Z,3.10
2023-03-18T04:13:46.602Z,4.50
2023-03-18T04:16:17.198Z,3.93
2023-03-18T04:18:46.849Z,4.73
2023-03-18T04:21:16.449Z,4.13
2023-03-18T04:23:50.283Z,3.65
2023-03-18T04:26:19.866Z,4.30
2023-03-18T04:28:53.003Z,3.63
2023-03-18T04:31:23.963Z,3.42
2023-03-18T04:33:53.575Z,3.20
2023-03-18T04:36:23.666Z,3.20
2023-03-18T04:38:53.435Z,3.40
2023-03-18T04:41:23.185Z,2.97
2023-03-18T04:43:55.803Z,3.00
2023-03-18T04:46:32.022Z,2.90
2023-03-18T04:49:02.275Z,3.27
2023-03-18T04:51:32.516Z,2.63
2023-03-18T04:54:02.620Z,2.87
2023-03-18T04:56:34.157Z,2.83
2023-03-18T04:59:07.603Z,2.53
2023-03-18T05:01:38.221Z,2.77
2023-03-18T05:04:08.465Z,2.40
2023-03-18T05:06:46.825Z,2.97
2023-03-18T05:09:18.238Z,2.87
2023-03-18T05:11:47.837Z,2.90
2023-03-18T05:14:40.639Z,2.90
2023-03-18T05:17:15.525Z,4.60
2023-03-18T05:19:47.639Z,3.57
2023-03-18T05:22:23.278Z,2.97
2023-03-18T05:24:59.654Z,3.27
2023-03-18T05:27:31.570Z,2.87
2023-03-18T05:30:12.525Z,2.77
2023-03-18T05:32:48.855Z,3.80
2023-03-18T05:35:19.706Z,4.03
2023-03-18T05:37:53.373Z,3.43
2023-03-18T05:40:24.221Z,3.33
2023-03-18T05:43:10.480Z,3.73
2023-03-18T05:45:48.970Z,3.30
2023-03-18T05:48:21.341Z,3.77
2023-03-18T05:50:58.834Z,3.23
2023-03-18T05:53:32.113Z,2.77
2023-03-18T05:56:12.425Z,3.42
2023-03-18T05:58:42.277Z,3.40
2023-03-18T06:01:37.520Z,3.30
2023-03-18T06:04:08.872Z,2.93
2023-03-18T06:06:40.650Z,3.10
2023-03-18T06:09:10.941Z,3.57
2023-03-18T06:11:41.081Z,3.37
2023-03-18T06:14:11.399Z,3.60
2023-03-18T06:16:45.837Z,2.90
2023-03-18T06:19:15.924Z,3.47
2023-03-18T06:21:45.522Z,2.73
2023-03-18T06:24:15.413Z,3.10
2023-03-18T06:26:45.490Z,3.20
2023-03-18T06:29:15.016Z,3.28
2023-03-18T06:31:47.145Z,3.22
2023-03-18T06:34:22.286Z,2.97
2023-03-18T06:36:52.480Z,3.60
2023-03-18T06:39:22.932Z,2.72
2023-03-18T06:41:55.122Z,2.75
2023-03-18T06:44:37.343Z,3.00
2023-03-18T06:47:17.688Z,2.80
2023-03-18T06:49:54.725Z,3.65
2023-03-18T06:52:31.236Z,4.53
2023-03-18T06:55:06.585Z,4.63
2023-03-18T06:57:40.475Z,4.07
2023-03-18T07:00:12.108Z,4.50
2023-03-18T07:02:45.928Z,4.63
2023-03-18T07:05:17.930Z,6.45
2023-03-18T07:07:48.609Z,9.95
2023-03-18T07:10:21.001Z,7.78
2023-03-18T07:12:52.367Z,5.28
2023-03-18T07:15:22.745Z,4.28
2023-03-18T07:17:57.540Z,3.80
2023-03-18T07:20:27.255Z,4.30
2023-03-18T07:22:56.738Z,4.20
2023-03-18T07:25:26.225Z,4.80
2023-03-18T07:27:56.642Z,5.13
2023-03-18T07:30:27.314Z,4.22
2023-03-18T07:32:59.489Z,5.28
2023-03-18T07:35:29.638Z,4.43
2023-03-18T07:37:59.122Z,3.78
2023-03-18T07:40:28.654Z,3.67
2023-03-18T07:42:58.294Z,3.83
2023-03-18T07:45:28.481Z,3.92
2023-03-18T07:48:00.875Z,4.25
2023-03-18T07:50:30.624Z,3.60
2023-03-18T07:53:00.118Z,3.95
2023-03-18T07:55:29.624Z,4.05
2023-03-18T07:57:59.675Z,3.10
2023-03-18T08:00:29.479Z,3.67
2023-03-18T08:03:01.636Z,3.85
2023-03-18T08:05:32.202Z,3.35
2023-03-18T08:08:02.610Z,4.28
2023-03-18T08:10:32.122Z,3.88
2023-03-18T08:13:01.611Z,4.22
2023-03-18T08:15:31.808Z,3.65
2023-03-18T08:18:04.177Z,3.97
2023-03-18T08:20:34.133Z,4.18
2023-03-18T08:23:04.478Z,3.88
2023-03-18T08:25:35.269Z,3.97
2023-03-18T08:28:07.690Z,4.30
2023-03-18T08:30:37.370Z,3.17
2023-03-18T08:33:09.849Z,3.05
2023-03-18T08:35:39.662Z,3.45
2023-03-18T08:38:09.362Z,3.72
2023-03-18T08:40:38.874Z,3.50
2023-03-18T08:43:08.674Z,3.58
2023-03-18T08:45:39.233Z,2.88
2023-03-18T08:48:11.444Z,3.67
2023-03-18T08:50:40.959Z,3.45
2023-03-18T08:53:11.485Z,3.85
2023-03-18T08:55:41.640Z,3.08
2023-03-18T08:58:11.523Z,3.15
2023-03-18T09:00:43.034Z,2.92
2023-03-18T09:03:16.005Z,3.42
2023-03-18T09:05:45.840Z,3.40
2023-03-18T09:08:15.389Z,3.20
2023-03-18T09:10:44.926Z,3.20
2023-03-18T09:13:14.493Z,3.42
2023-03-18T09:15:44.096Z,3.80
2023-03-18T09:18:16.519Z,3.45
2023-03-18T09:20:46.318Z,3.17
2023-03-18T09:23:18.375Z,3.97
2023-03-18T09:25:51.884Z,3.22
2023-03-18T09:28:21.516Z,3.40
2023-03-18T09:30:51.317Z,3.60
2023-03-18T09:33:24.935Z,3.92
2023-03-18T09:35:56.859Z,3.80
2023-03-18T09:38:26.643Z,3.72
2023-03-18T09:41:04.794Z,3.75
2023-03-18T09:43:42.023Z,3.45
2023-03-18T09:46:14.881Z,3.78
2023-03-18T09:49:00.206Z,3.30
2023-03-18T09:51:41.965Z,3.42
2023-03-18T09:54:13.770Z,3.28
2023-03-18T09:56:43.385Z,3.30
2023-03-18T09:59:18.440Z,2.75
2023-03-18T10:01:49.988Z,3.70
2023-03-18T10:04:22.594Z,2.75
2023-03-18T10:06:57.079Z,3.35
2023-03-18T10:09:29.725Z,2.70
2023-03-18T10:12:04.123Z,3.05
2023-03-18T10:14:38.176Z,2.92
2023-03-18T10:17:15.793Z,3.35
2023-03-18T10:19:48.257Z,2.97
2023-03-18T10:22:29.071Z,2.67
2023-03-18T10:25:04.660Z,2.78
2023-03-18T10:27:40.778Z,3.17
2023-03-18T10:30:19.136Z,2.88
2023-03-18T10:32:51.837Z,2.50
2023-03-18T10:35:26.980Z,2.60
2023-03-18T10:38:00.640Z,2.63
2023-03-18T10:40:32.872Z,3.10
2023-03-18T10:43:03.225Z,3.20
2023-03-18T10:45:34.156Z,2.53
2023-03-18T10:48:06.256Z,3.25
2023-03-18T10:50:38.413Z,2.70
2023-03-18T10:53:16.617Z,2.10
2023-03-18T10:55:50.955Z,2.33
2023-03-18T10:58:21.526Z,1.70
2023-03-18T11:00:51.371Z,1.65
2023-03-18T11:03:23.768Z,2.10
2023-03-18T11:05:54.694Z,2.30
2023-03-18T11:08:35.475Z,2.35
2023-03-18T11:11:05.969Z,2.30
2023-03-18T11:13:35.854Z,2.67
2023-03-18T11:16:06.945Z,2.17
2023-03-18T11:18:36.581Z,2.90
2023-03-18T11:21:13.185Z,2.17
2023-03-18T11:23:56.446Z,2.50
2023-03-18T11:26:26.917Z,2.60
2023-03-18T11:28:57.431Z,2.60
2023-03-18T11:31:28.192Z,2.45
2023-03-18T11:34:00.672Z,2.40
2023-03-18T11:36:32.703Z,2.08
2023-03-18T11:39:06.648Z,2.53
2023-03-18T11:41:40.567Z,2.20
2023-03-18T11:44:11.286Z,2.13
2023-03-18T11:46:42.429Z,1.98
2023-03-18T11:49:16.166Z,1.92
2023-03-18T11:51:47.756Z,2.47
2023-03-18T11:54:40.875Z,2.20
2023-03-18T11:57:14.810Z,2.25
2023-03-18T11:59:54.524Z,2.22
2023-03-18T12:02:28.985Z,1.50
2023-03-18T12:05:05.640Z,1.60
2023-03-18T12:07:44.369Z,0.98
2023-03-18T12:10:20.463Z,1.45
2023-03-18T12:12:59.737Z,2.00
2023-03-18T12:15:37.632Z,1.60
2023-03-18T12:18:11.794Z,1.67
2023-03-18T12:20:49.379Z,1.63
2023-03-18T12:23:33.757Z,1.75
2023-03-18T12:26:08.529Z,1.10
2023-03-18T12:28:57.476Z,1.55
2023-03-18T12:31:42.238Z,1.30
2023-03-18T12:34:17.659Z,0.88
2023-03-18T12:36:54.295Z,1.05
2023-03-18T12:39:34.018Z,1.30
2023-03-18T12:42:05.056Z,1.25
2023-03-18T12:44:44.265Z,1.35
2023-03-18T12:47:15.664Z,1.52
2023-03-18T12:49:48.713Z,1.30
2023-03-18T12:52:27.497Z,1.45
2023-03-18T12:55:00.549Z,1.27
2023-03-18T12:57:36.116Z,1.10
2023-03-18T13:00:10.638Z,0.90
2023-03-18T13:02:46.644Z,1.02
2023-03-18T13:05:21.308Z,1.70
2023-03-18T13:07:52.575Z,0.90
2023-03-18T13:10:23.859Z,1.33
2023-03-18T13:12:54.804Z,1.30
2023-03-18T13:15:31.273Z,1.30
2023-03-18T13:18:02.953Z,1.17
2023-03-18T13:20:34.437Z,1.40
2023-03-18T13:23:13.969Z,1.20
2023-03-18T13:25:47.828Z,1.42
2023-03-18T13:28:26.037Z,1.25
2023-03-18T13:31:03.850Z,1.17
2023-03-18T13:33:42.211Z,1.25
2023-03-18T13:36:17.521Z,1.85
2023-03-18T13:38:54.096Z,0.82
2023-03-18T13:41:39.712Z,1.15
2023-03-18T13:44:13.288Z,1.20
2023-03-18T13:46:50.608Z,1.10
2023-03-18T13:49:23.053Z,1.80
2023-03-18T13:51:53.787Z,0.93
2023-03-18T13:54:23.382Z,1.40
2023-03-18T13:56:56.003Z,1.00
2023-03-18T13:59:40.570Z,1.15
2023-03-18T14:02:24.942Z,1.30
2023-03-18T14:04:58.425Z,1.08
2023-03-18T14:07:28.674Z,1.15
2023-03-18T14:10:18.873Z,1.10
2023-03-18T14:12:51.547Z,1.23
2023-03-18T14:15:48.299Z,1.15
2023-03-18T14:18:29.089Z,0.80
2023-03-18T14:21:08.855Z,1.20
2023-03-18T14:23:39.994Z,1.15
2023-03-18T14:26:11.288Z,1.30
2023-03-18T14:28:47.049Z,1.20
2023-03-18T14:31:18.687Z,1.88
2023-03-18T14:34:00.389Z,1.20
2023-03-18T14:36:42.996Z,1.35
2023-03-18T14:39:16.872Z,1.50
2023-03-18T14:41:48.764Z,0.88
2023-03-18T14:44:24.225Z,1.50
2023-03-18T14:47:01.117Z,1.30
2023-03-18T14:49:38.953Z,1.27
2023-03-18T14:52:19.001Z,1.00
2023-03-18T14:54:49.765Z,1.02
2023-03-18T14:57:19.251Z,1.40
2023-03-18T14:59:48.689Z,1.05
2023-03-18T15:02:24.103Z,1.15
2023-03-18T15:04:55.426Z,1.40
2023-03-18T15:07:33.547Z,1.25
2023-03-18T15:10:05.772Z,1.27
2023-03-18T15:12:35.407Z,1.17
2023-03-18T15:15:04.865Z,1.42
2023-03-18T15:20:05.560Z,1.17
2023-03-18T15:22:37.708Z,1.33
2023-03-18T15:25:08.925Z,1.42
2023-03-18T15:27:39.007Z,1.38
2023-03-18T15:30:12.005Z,1.15
2023-03-18T15:32:46.602Z,1.00
2023-03-18T15:35:18.562Z,1.40
2023-03-18T15:38:04.837Z,1.20
2023-03-18T15:40:36.439Z,0.77
2023-03-18T15:43:07.516Z,1.00
2023-03-18T15:45:37.187Z,0.98
2023-03-18T15:48:11.004Z,1.30
2023-03-18T15:50:40.530Z,1.60
2023-03-18T15:53:21.713Z,1.60
2023-03-18T15:55:52.919Z,2.75
2023-03-18T15:58:23.950Z,3.15
2023-03-18T16:00:54.329Z,2.08
2023-03-18T16:03:24.945Z,1.58
2023-03-18T16:05:55.558Z,2.03
2023-03-18T16:08:27.807Z,1.17
2023-03-18T16:10:58.919Z,1.13
2023-03-18T16:13:29.699Z,1.30
2023-03-18T16:15:59.212Z,1.20
2023-03-18T16:18:28.670Z,1.60
2023-03-18T16:20:58.120Z,1.42
2023-03-18T16:23:30.870Z,1.13
2023-03-18T16:26:00.395Z,1.20
2023-03-18T16:28:30.348Z,1.05
2023-03-18T16:31:01.032Z,1.38
2023-03-18T16:33:37.450Z,1.30
2023-03-18T16:36:08.296Z,1.42
2023-03-18T16:38:41.189Z,1.45
2023-03-18T16:41:10.909Z,1.52
2023-03-18T16:43:40.433Z,1.10
2023-03-18T16:46:13.965Z,1.23
2023-03-18T16:48:43.681Z,1.42
2023-03-18T16:51:13.289Z,1.13
2023-03-18T16:53:45.504Z,1.25
2023-03-18T16:56:18.004Z,1.40
2023-03-18T16:58:48.140Z,1.25
2023-03-18T17:01:19.512Z,1.80
2023-03-18T17:03:49.729Z,1.48
2023-03-18T17:06:19.208Z,1.85
2023-03-18T17:08:52.626Z,2.72
2023-03-18T17:11:22.861Z,2.20
2023-03-18T17:13:52.375Z,1.98
2023-03-18T17:16:22.421Z,2.50
2023-03-18T17:18:51.864Z,1.63
2023-03-18T17:21:21.305Z,1.60
2023-03-18T17:23:53.408Z,1.67
2023-03-18T17:26:22.973Z,2.20
2023-03-18T17:41:28.935Z,2.20
2023-03-18T17:43:58.448Z,1.77
2023-03-18T17:46:28.863Z,1.98
2023-03-18T17:48:59.292Z,1.50
2023-03-18T17:51:28.808Z,1.77
2023-03-18T17:53:59.288Z,1.75
2023-03-18T17:56:31.469Z,1.65
2023-03-18T17:59:01.225Z,1.88
2023-03-18T18:01:32.474Z,2.00
2023-03-18T18:04:02.981Z,1.90
2023-03-18T18:06:34.002Z,1.58
2023-03-18T18:09:04.545Z,1.70
2023-03-18T18:11:39.127Z,1.50
2023-03-18T18:14:13.700Z,1.63
2023-03-18T18:16:43.784Z,3.90
2023-03-18T18:19:14.501Z,3.63
2023-03-18T18:21:44.896Z,2.60
2023-03-18T18:24:21.843Z,2.20
2023-03-18T18:26:54.198Z,1.95
2023-03-18T18:29:24.686Z,2.08
2023-03-18T18:31:54.387Z,1.92
2023-03-18T18:34:24.044Z,1.55
2023-03-18T18:36:53.670Z,2.13
2023-03-18T18:39:23.266Z,1.92
2023-03-18T18:41:55.370Z,1.75
2023-03-18T18:44:25.331Z,2.60
2023-03-18T18:46:55.080Z,3.17
2023-03-18T18:49:26.017Z,3.03
2023-03-18T18:51:56.308Z,2.95
2023-03-18T18:54:25.998Z,2.50
2023-03-18T18:56:58.203Z,2.38
2023-03-18T18:59:32.006Z,2.00
2023-03-18T19:02:03.551Z,2.28
2023-03-18T19:04:33.182Z,1.88
2023-03-18T19:07:05.544Z,2.25
2023-03-18T19:09:35.125Z,2.10
2023-03-18T19:12:12.806Z,2.20
2023-03-18T19:14:42.443Z,1.58
2023-03-18T19:17:15.420Z,2.47
2023-03-18T19:19:45.517Z,2.22
2023-03-18T19:22:16.298Z,2.25
2023-03-18T19:24:48.460Z,2.00
2023-03-18T19:27:23.712Z,1.80
2023-03-18T19:29:53.676Z,2.17
2023-03-18T19:32:24.050Z,2.03
2023-03-18T19:34:54.745Z,2.28
2023-03-18T19:37:27.311Z,2.28
2023-03-18T19:39:57.454Z,1.95
2023-03-18T19:42:29.820Z,1.75
2023-03-18T19:44:59.488Z,2.10
2023-03-18T19:47:29.932Z,5.45
2023-03-18T19:50:01.328Z,4.80
2023-03-18T19:52:31.290Z,6.43
2023-03-18T19:55:02.836Z,4.22
2023-03-18T19:57:35.124Z,3.00
2023-03-18T20:00:10.604Z,3.50
2023-03-18T20:02:40.182Z,3.00
2023-03-18T20:05:19.090Z,3.05
2023-03-18T20:07:50.578Z,2.72
2023-03-18T20:10:20.907Z,5.32
2023-03-18T20:12:53.500Z,2.92
2023-03-18T20:15:24.945Z,5.78
2023-03-18T20:17:55.054Z,5.07
2023-03-18T20:20:25.914Z,4.28
2023-03-18T20:22:56.828Z,4.43
2023-03-18T20:25:27.167Z,3.70
2023-03-18T20:27:59.965Z,4.15
2023-03-18T20:30:31.302Z,3.47
2023-03-18T20:33:04.082Z,4.00
2023-03-18T20:35:35.112Z,3.85
2023-03-18T20:38:07.626Z,3.47
2023-03-18T20:40:37.447Z,3.78
2023-03-18T20:43:09.670Z,2.97
2023-03-18T20:45:39.346Z,2.83
2023-03-18T20:48:09.740Z,2.75
2023-03-18T20:50:39.854Z,2.08
2023-03-18T20:53:15.365Z,2.60
2023-03-18T20:55:46.885Z,2.58
2023-03-18T20:58:20.132Z,2.47
2023-03-18T21:00:50.931Z,2.58
2023-03-18T21:03:24.680Z,2.22
2023-03-18T21:05:56.263Z,3.08
2023-03-18T21:08:26.677Z,2.88
2023-03-18T21:10:57.119Z,2.63
2023-03-18T21:13:32.832Z,2.50
2023-03-18T21:16:03.557Z,2.53
2023-03-18T21:18:33.132Z,3.03
2023-03-18T21:21:02.899Z,2.97
2023-03-18T21:23:34.273Z,2.85
2023-03-18T21:26:03.972Z,2.17
2023-03-18T21:28:36.263Z,2.75
2023-03-18T21:31:05.969Z,2.97
2023-03-18T21:33:36.436Z,2.60
2023-03-18T21:36:06.702Z,3.38
2023-03-18T21:38:36.975Z,2.78
2023-03-18T21:41:08.286Z,2.80
2023-03-18T21:43:41.655Z,2.58
2023-03-18T21:46:15.348Z,2.72
2023-03-18T21:48:45.270Z,2.55
2023-03-18T21:51:38.454Z,5.07
2023-03-18T21:54:09.153Z,5.35
2023-03-18T21:56:38.742Z,3.35
2023-03-18T21:59:11.149Z,3.78
2023-03-18T22:01:40.857Z,3.65
2023-03-18T22:04:10.514Z,7.07
2023-03-18T22:06:40.181Z,6.95
2023-03-18T22:09:09.904Z,6.63
2023-03-18T22:11:39.513Z,8.73
2023-03-18T22:14:13.182Z,9.55
2023-03-18T22:16:42.850Z,12.63
2023-03-18T22:19:12.496Z,8.68
2023-03-18T22:21:42.235Z,7.75
2023-03-18T22:24:15.832Z,4.25
2023-03-18T22:26:45.469Z,5.72
2023-03-18T22:29:18.031Z,7.03
2023-03-18T22:31:47.668Z,7.90
2023-03-18T22:34:24.424Z,8.95
2023-03-18T22:36:54.006Z,9.10
2023-03-18T22:39:23.549Z,10.05
2023-03-18T22:41:53.150Z,9.10
2023-03-18T22:44:25.944Z,8.55
2023-03-18T22:46:55.650Z,7.95
2023-03-18T22:49:25.358Z,7.82
2023-03-18T22:51:55.010Z,7.28
2023-03-18T22:54:26.382Z,7.13
2023-03-18T22:56:58.368Z,6.93
2023-03-18T22:59:31.401Z,4.78
2023-03-18T23:02:01.860Z,5.70
2023-03-18T23:04:32.156Z,5.15
2023-03-18T23:07:01.800Z,4.63
2023-03-18T23:09:31.798Z,4.50
2023-03-18T23:12:01.583Z,3.83
2023-03-18T23:14:34.383Z,4.32
2023-03-18T23:17:04.000Z,5.20
2023-03-18T23:19:33.519Z,5.28
2023-03-18T23:22:03.066Z,3.85
2023-03-18T23:24:32.623Z,3.78
2023-03-18T23:27:03.512Z,3.10
2023-03-18T23:29:35.882Z,3.95
2023-03-18T23:32:05.936Z,3.63
2023-03-18T23:34:35.469Z,4.20
2023-03-18T23:37:05.441Z,4.32
2023-03-18T23:39:35.083Z,4.88
2023-03-18T23:42:04.640Z,4.80
2023-03-18T23:44:36.809Z,4.72
2023-03-18T23:47:06.513Z,4.60
2023-03-18T23:49:36.048Z,4.50
2023-03-18T23:52:06.922Z,4.60
2023-03-18T23:54:36.663Z,3.85
2023-03-18T23:57:06.657Z,3.78
2023-03-18T23:59:38.960Z,3.80
